Hendricks, Minnesota
Current Conditions -  °F | °C
As of 2:53 PM on Tuesday 27 Jan 2015 (Local Time) from KCNB Reporting Station
Broken Clouds Broken Clouds  
Wind Chill: 30°   Ceiling: 1000
Heat Index: 37°   Visibility: 10mi
Dew Point: 34°   Wind: 10mph
Humidity: 87%   Direction: 130°SE
Pressure: 30.05"   Gusts: 16mph
Location:  44.51°N, 96.42°W
Report Text: KCNB 272053Z AUTO 13009G14KT 10SM BKN010 03/01 A3005 RMK AO2 T00290009
Loading
Personal Weather Stations






























Interactive Weather Map New forecast layout! Learn more

10-Day Weather Forecast

Advertisements
Track Severe Weather on mobile